Terminal Aerodrome Forecast
Issued by NWS Charleston, WV

Current Version | Previous Version | Graphics & Text | Print | Product List | Glossary On
Versions: 1 2 3 4 5 6 7 8 9 10 11 12 13 14 15 16 17 18 19 20 21 22
000
FTUS41 KRLX 221700
TAFCRW
TAF
KCRW 221734Z 2218/2318 27011G17KT 5SM -SHRA BKN015 OVC030
     FM222000 27014G26KT P6SM BKN040
     FM222300 27012KT P6SM SCT040
     FM230200 29007KT P6SM SCT070
     FM231500 27011G20KT P6SM FEW045=

USA.gov is the U.S. government's official web portal to all federal, state and local government web resources and services.